createdAt,value
2022-12-08T00:01:15.932Z,5.60
2022-12-08T00:03:42.955Z,5.70
2022-12-08T00:06:44.817Z,5.60
2022-12-08T00:09:22.135Z,5.60
2022-12-08T00:12:10.729Z,5.50
2022-12-08T00:14:47.577Z,5.60
2022-12-08T00:17:16.206Z,5.70
2022-12-08T00:19:43.931Z,5.80
2022-12-08T00:22:12.107Z,5.90
2022-12-08T00:24:40.265Z,5.90
2022-12-08T00:27:08.339Z,6.00
2022-12-08T00:29:34.939Z,6.10
2022-12-08T00:32:01.659Z,6.00
2022-12-08T00:34:28.310Z,6.00
2022-12-08T00:36:55.015Z,6.00
2022-12-08T00:39:22.223Z,6.00
2022-12-08T00:42:07.337Z,6.00
2022-12-08T00:44:33.984Z,5.90
2022-12-08T00:47:00.657Z,5.90
2022-12-08T00:49:27.273Z,5.90
2022-12-08T00:51:53.957Z,5.70
2022-12-08T00:54:21.217Z,5.50
2022-12-08T00:56:47.883Z,5.50
2022-12-08T00:59:15.020Z,5.60
2022-12-08T01:01:44.719Z,5.60
2022-12-08T01:04:15.463Z,5.60
2022-12-08T01:06:43.154Z,5.60
2022-12-08T01:09:10.354Z,5.70
2022-12-08T01:11:37.356Z,5.60
2022-12-08T01:14:04.296Z,5.60
2022-12-08T01:16:33.965Z,5.70
2022-12-08T01:19:00.775Z,5.80
2022-12-08T01:21:27.915Z,5.70
2022-12-08T01:23:55.480Z,5.60
2022-12-08T01:26:22.279Z,5.50
2022-12-08T01:28:49.173Z,5.60
2022-12-08T01:31:20.694Z,5.60
2022-12-08T01:33:48.821Z,5.60
2022-12-08T01:36:23.733Z,5.70
2022-12-08T01:38:51.285Z,5.80
2022-12-08T01:41:20.562Z,5.80
2022-12-08T01:44:10.523Z,5.80
2022-12-08T01:46:45.562Z,5.70
2022-12-08T01:49:20.729Z,5.70
2022-12-08T01:52:11.737Z,5.70
2022-12-08T01:54:53.393Z,5.70
2022-12-08T01:57:35.075Z,5.80
2022-12-08T02:00:08.698Z,5.70
2022-12-08T02:02:59.416Z,5.80
2022-12-08T02:05:30.048Z,5.80
2022-12-08T02:07:58.513Z,5.70
2022-12-08T02:10:29.940Z,5.70
2022-12-08T02:12:58.769Z,5.70
2022-12-08T02:15:50.604Z,5.80
2022-12-08T02:18:39.646Z,5.80
2022-12-08T02:21:18.236Z,5.70
2022-12-08T02:24:01.519Z,5.70
2022-12-08T02:26:52.963Z,5.60
2022-12-08T02:29:53.712Z,5.60
2022-12-08T02:32:48.944Z,5.70
2022-12-08T02:35:41.913Z,5.70
2022-12-08T02:38:26.750Z,5.70
2022-12-08T02:41:18.817Z,5.60
2022-12-08T02:43:56.495Z,5.60
2022-12-08T02:46:35.816Z,5.60
2022-12-08T02:49:03.529Z,5.60
2022-12-08T02:51:30.137Z,5.60
2022-12-08T02:53:57.589Z,5.70
2022-12-08T02:56:39.498Z,5.70
2022-12-08T02:59:25.904Z,5.70
2022-12-08T03:02:17.913Z,5.80
2022-12-08T03:05:06.181Z,5.80
2022-12-08T03:07:44.060Z,5.70
2022-12-08T03:10:16.090Z,5.70
2022-12-08T03:12:42.610Z,5.80
2022-12-08T03:15:12.698Z,5.90
2022-12-08T03:17:43.286Z,5.90
2022-12-08T03:20:13.236Z,5.80
2022-12-08T03:22:42.950Z,5.90
2022-12-08T03:25:13.045Z,5.90
2022-12-08T03:27:39.656Z,6.00
2022-12-08T03:30:07.508Z,6.00
2022-12-08T03:32:40.582Z,5.90
2022-12-08T03:35:12.908Z,5.90
2022-12-08T03:37:40.954Z,5.80
2022-12-08T03:40:11.082Z,5.70
2022-12-08T03:42:37.754Z,5.70
2022-12-08T03:45:05.334Z,5.70
2022-12-08T03:47:32.083Z,5.60
2022-12-08T03:49:58.701Z,5.50
2022-12-08T03:52:25.324Z,5.50
2022-12-08T03:54:51.958Z,5.60
2022-12-08T03:57:18.634Z,5.50
2022-12-08T03:59:45.257Z,5.40
2022-12-08T04:02:11.954Z,5.40
2022-12-08T04:04:38.646Z,5.40
2022-12-08T04:07:05.260Z,5.50
2022-12-08T04:09:31.909Z,5.50
2022-12-08T04:11:58.566Z,5.50
2022-12-08T04:14:25.242Z,5.50
2022-12-08T04:16:51.884Z,5.50
2022-12-08T04:19:18.489Z,5.60
2022-12-08T04:21:45.105Z,5.70
2022-12-08T04:24:11.802Z,5.70
2022-12-08T04:26:38.446Z,5.80
2022-12-08T04:29:05.118Z,5.80
2022-12-08T04:31:31.906Z,5.80
2022-12-08T04:33:58.603Z,5.80
2022-12-08T04:36:25.383Z,5.70
2022-12-08T04:38:51.994Z,5.80
2022-12-08T04:41:18.560Z,5.80
2022-12-08T04:43:45.218Z,5.70
2022-12-08T04:46:11.923Z,5.70
2022-12-08T04:48:39.658Z,5.70
2022-12-08T04:51:06.990Z,5.70
2022-12-08T04:53:33.667Z,5.60
2022-12-08T04:56:00.239Z,5.60
2022-12-08T04:58:26.874Z,5.70
2022-12-08T05:00:53.572Z,5.70
2022-12-08T05:03:25.287Z,5.70
2022-12-08T05:05:55.111Z,5.80
2022-12-08T05:08:21.809Z,5.80
2022-12-08T05:10:48.466Z,5.70
2022-12-08T05:13:15.029Z,5.70
2022-12-08T05:15:41.636Z,5.80
2022-12-08T05:18:08.261Z,5.70
2022-12-08T05:20:35.626Z,5.80
2022-12-08T05:23:02.372Z,5.70
2022-12-08T05:25:29.190Z,5.70
2022-12-08T05:28:17.613Z,5.70
2022-12-08T05:30:42.499Z,5.60
2022-12-08T05:33:09.118Z,5.70
2022-12-08T05:35:35.699Z,5.70
2022-12-08T05:38:02.451Z,5.70
2022-12-08T05:40:29.140Z,5.70
2022-12-08T05:42:55.751Z,5.70
2022-12-08T05:45:22.408Z,5.70
2022-12-08T05:47:49.046Z,5.60
2022-12-08T05:50:15.739Z,5.70
2022-12-08T05:52:42.407Z,5.70
2022-12-08T05:55:09.454Z,5.70
2022-12-08T05:57:36.040Z,5.70
2022-12-08T06:00:03.594Z,5.70
2022-12-08T06:02:30.735Z,5.80
2022-12-08T06:04:57.436Z,5.70
2022-12-08T06:07:24.011Z,5.70
2022-12-08T06:09:50.654Z,5.70
2022-12-08T06:12:17.406Z,5.60
2022-12-08T06:14:44.096Z,5.60
2022-12-08T06:17:10.746Z,5.50
2022-12-08T06:19:37.370Z,5.40
2022-12-08T06:22:03.994Z,5.40
2022-12-08T06:24:30.594Z,5.30
2022-12-08T06:26:57.293Z,5.20
2022-12-08T06:29:23.933Z,5.20
2022-12-08T06:31:52.223Z,5.10
2022-12-08T06:34:18.991Z,5.10
2022-12-08T06:36:45.574Z,5.00
2022-12-08T06:39:12.266Z,5.00
2022-12-08T06:41:58.910Z,5.10
2022-12-08T06:44:25.585Z,5.10
2022-12-08T06:46:52.158Z,5.00
2022-12-08T06:49:18.797Z,5.00
2022-12-08T06:51:45.401Z,4.90
2022-12-08T06:54:12.477Z,4.80
2022-12-08T06:56:39.162Z,4.80
2022-12-08T06:59:05.826Z,4.90
2022-12-08T07:01:32.571Z,4.80
2022-12-08T07:03:59.277Z,4.80
2022-12-08T07:06:25.878Z,4.90
2022-12-08T07:08:52.617Z,4.90
2022-12-08T07:11:21.915Z,4.90
2022-12-08T07:13:49.511Z,5.00
2022-12-08T07:16:16.313Z,4.90
2022-12-08T07:18:43.899Z,4.90
2022-12-08T07:21:13.063Z,4.90
2022-12-08T07:23:39.766Z,5.00
2022-12-08T07:26:08.492Z,5.10
2022-12-08T07:28:37.302Z,5.00
2022-12-08T07:31:04.851Z,5.00
2022-12-08T07:33:32.881Z,5.00
2022-12-08T07:36:01.839Z,5.00
2022-12-08T07:38:29.250Z,5.00
2022-12-08T07:40:55.969Z,5.00
2022-12-08T07:43:23.338Z,5.00
2022-12-08T07:45:50.879Z,5.00
2022-12-08T07:48:18.003Z,4.90
2022-12-08T07:50:45.419Z,4.90
2022-12-08T07:53:12.173Z,4.80
2022-12-08T07:55:43.190Z,4.90
2022-12-08T07:58:10.724Z,4.90
2022-12-08T08:00:37.761Z,5.00
2022-12-08T08:03:04.543Z,5.00
2022-12-08T08:05:31.309Z,5.00
2022-12-08T08:07:58.007Z,5.00
2022-12-08T08:10:24.723Z,5.00
2022-12-08T08:12:51.334Z,5.00
2022-12-08T08:15:19.178Z,5.00
2022-12-08T08:17:51.802Z,5.00
2022-12-08T08:20:19.691Z,5.10
2022-12-08T08:22:50.540Z,5.10
2022-12-08T08:25:19.009Z,5.10
2022-12-08T08:27:46.516Z,5.10
2022-12-08T08:30:19.738Z,5.00
2022-12-08T08:32:47.834Z,5.10
2022-12-08T08:35:14.400Z,5.10
2022-12-08T08:37:44.365Z,5.10
2022-12-08T08:40:15.207Z,5.10
2022-12-08T08:42:41.851Z,5.20
2022-12-08T08:45:08.823Z,5.20
2022-12-08T08:47:35.595Z,5.20
2022-12-08T08:50:02.583Z,5.20
2022-12-08T08:52:30.092Z,5.20
2022-12-08T08:54:56.742Z,5.20
2022-12-08T08:57:25.795Z,5.20
2022-12-08T08:59:53.233Z,5.20
2022-12-08T09:02:20.449Z,5.30
2022-12-08T09:04:47.412Z,5.30
2022-12-08T09:07:14.972Z,5.20
2022-12-08T09:09:41.760Z,5.10
2022-12-08T09:12:09.033Z,5.20
2022-12-08T09:14:35.952Z,5.20
2022-12-08T09:17:02.732Z,5.10
2022-12-08T09:19:29.342Z,5.10
2022-12-08T09:21:55.995Z,5.10
2022-12-08T09:24:23.105Z,5.10
2022-12-08T09:26:49.913Z,5.20
2022-12-08T09:29:17.806Z,5.20
2022-12-08T09:31:44.824Z,5.10
2022-12-08T09:34:12.749Z,5.10
2022-12-08T09:36:39.636Z,5.20
2022-12-08T09:39:06.348Z,5.20
2022-12-08T09:41:40.313Z,5.20
2022-12-08T09:44:38.855Z,5.10
2022-12-08T09:47:19.101Z,5.20
2022-12-08T09:49:58.825Z,5.30
2022-12-08T09:52:32.111Z,5.30
2022-12-08T09:55:03.006Z,5.40
2022-12-08T09:57:31.876Z,5.40
2022-12-08T10:00:02.983Z,5.40
2022-12-08T10:02:30.606Z,5.30
2022-12-08T10:04:58.801Z,5.30
2022-12-08T10:07:37.393Z,5.10
2022-12-08T10:10:29.202Z,5.20
2022-12-08T10:13:25.585Z,5.10
2022-12-08T10:16:23.106Z,5.10
2022-12-08T10:19:05.286Z,5.30
2022-12-08T10:21:33.645Z,5.30
2022-12-08T10:24:09.241Z,5.20
2022-12-08T10:26:35.875Z,5.40
2022-12-08T10:29:03.086Z,5.50
2022-12-08T10:31:31.181Z,5.50
2022-12-08T10:34:13.732Z,5.50
2022-12-08T10:36:49.218Z,5.60
2022-12-08T10:39:33.074Z,5.60
2022-12-08T10:42:14.733Z,5.50
2022-12-08T10:45:10.005Z,5.40
2022-12-08T10:47:42.502Z,5.30
2022-12-08T10:50:27.707Z,5.10
2022-12-08T10:52:59.963Z,5.00
2022-12-08T10:55:29.144Z,5.00
2022-12-08T10:57:56.010Z,5.00
2022-12-08T11:00:27.966Z,5.10
2022-12-08T11:02:59.697Z,5.00
2022-12-08T11:05:31.340Z,5.10
2022-12-08T11:07:58.290Z,5.10
2022-12-08T11:10:43.598Z,5.30
2022-12-08T11:13:21.003Z,5.20
2022-12-08T11:15:47.966Z,5.30
2022-12-08T11:18:29.795Z,5.30
2022-12-08T11:21:05.875Z,5.30
2022-12-08T11:23:36.549Z,5.30
2022-12-08T11:26:18.998Z,5.30
2022-12-08T11:28:45.651Z,5.30
2022-12-08T11:31:30.648Z,5.50
2022-12-08T11:33:57.540Z,5.50
2022-12-08T11:36:27.175Z,5.50
2022-12-08T11:38:57.626Z,5.60
2022-12-08T11:41:38.772Z,5.70
2022-12-08T11:44:20.729Z,5.70
2022-12-08T11:46:59.749Z,5.80
2022-12-08T11:49:36.928Z,5.90
2022-12-08T11:52:33.738Z,5.90
2022-12-08T11:55:17.272Z,6.00
2022-12-08T11:57:45.421Z,6.00
2022-12-08T12:00:15.214Z,6.00
2022-12-08T12:02:49.567Z,6.10
2022-12-08T12:06:18.558Z,6.10
2022-12-08T12:09:06.749Z,6.00
2022-12-08T12:12:14.308Z,6.10
2022-12-08T12:14:59.029Z,6.10
2022-12-08T12:17:42.711Z,6.20
2022-12-08T12:20:34.511Z,6.30
2022-12-08T12:23:18.475Z,6.30
2022-12-08T12:26:00.054Z,6.30
2022-12-08T12:28:49.562Z,6.30
2022-12-08T12:31:19.448Z,6.10
2022-12-08T12:33:47.059Z,6.00
2022-12-08T12:36:14.883Z,6.10
2022-12-08T12:39:06.292Z,6.20
2022-12-08T12:41:52.674Z,6.20
2022-12-08T12:44:19.317Z,6.20
2022-12-08T12:46:48.777Z,6.30
2022-12-08T12:49:40.138Z,6.30
2022-12-08T12:52:16.016Z,6.30
2022-12-08T12:54:44.384Z,6.10
2022-12-08T12:57:10.988Z,6.10
2022-12-08T12:59:55.543Z,6.20
2022-12-08T13:02:44.391Z,6.10
2022-12-08T13:05:33.131Z,6.00
2022-12-08T13:08:16.304Z,6.10
2022-12-08T13:11:05.417Z,6.10
2022-12-08T13:13:32.775Z,6.00
2022-12-08T13:16:07.693Z,6.20
2022-12-08T13:18:57.518Z,6.20
2022-12-08T13:21:31.941Z,6.10
2022-12-08T13:24:12.763Z,6.00
2022-12-08T13:27:11.490Z,6.00
2022-12-08T13:29:39.589Z,5.80
2022-12-08T13:32:09.673Z,5.90
2022-12-08T13:34:49.656Z,6.00
2022-12-08T13:37:28.244Z,6.00
2022-12-08T13:40:14.541Z,6.10
2022-12-08T13:42:49.927Z,6.20
2022-12-08T13:45:52.940Z,6.20
2022-12-08T13:49:03.380Z,6.10
2022-12-08T13:57:15.671Z,6.00
2022-12-08T13:59:45.889Z,6.10
2022-12-08T14:02:40.787Z,6.20
2022-12-08T14:05:26.299Z,6.10
2022-12-08T14:07:56.768Z,6.00
2022-12-08T14:10:27.244Z,5.90
2022-12-08T14:13:06.204Z,5.90
2022-12-08T14:15:38.322Z,5.80
2022-12-08T14:18:06.905Z,5.80
2022-12-08T14:20:57.826Z,5.70
2022-12-08T14:23:22.088Z,5.60
2022-12-08T14:25:48.899Z,5.70
2022-12-08T14:28:16.358Z,5.60
2022-12-08T14:30:43.257Z,5.70
2022-12-08T14:33:15.045Z,5.60
2022-12-08T14:35:42.087Z,5.70
2022-12-08T14:38:35.342Z,5.80
2022-12-08T14:41:05.175Z,5.90
2022-12-08T14:43:32.765Z,5.80
2022-12-08T14:46:02.805Z,5.90
2022-12-08T14:48:38.378Z,5.90
2022-12-08T14:51:16.314Z,5.90
2022-12-08T14:53:46.345Z,5.90
2022-12-08T14:56:26.832Z,5.90
2022-12-08T14:59:23.636Z,5.90
2022-12-08T15:01:53.361Z,5.80
2022-12-08T15:04:28.308Z,5.90
2022-12-08T15:07:18.955Z,5.90
2022-12-08T15:09:50.062Z,5.80
2022-12-08T15:12:26.840Z,5.70
2022-12-08T15:15:13.645Z,5.70
2022-12-08T15:17:40.235Z,5.60
2022-12-08T15:20:31.651Z,5.40
2022-12-08T15:23:02.070Z,5.40
2022-12-08T15:25:28.734Z,5.40
2022-12-08T15:27:57.030Z,5.40
2022-12-08T15:30:26.315Z,5.30
2022-12-08T15:32:54.108Z,5.20
2022-12-08T15:35:21.317Z,5.30
2022-12-08T15:37:48.018Z,5.40
2022-12-08T15:40:17.675Z,5.30
2022-12-08T15:42:44.327Z,5.40
2022-12-08T15:45:15.043Z,5.40
2022-12-08T15:47:42.789Z,5.50
2022-12-08T15:50:18.613Z,5.40
2022-12-08T15:52:45.270Z,5.50
2022-12-08T15:55:13.701Z,5.50
2022-12-08T16:04:27.622Z,5.40
2022-12-08T16:09:36.165Z,5.40
2022-12-08T16:12:21.671Z,5.40
2022-12-08T16:17:36.356Z,5.30
2022-12-08T16:20:05.042Z,5.30
2022-12-08T16:25:21.425Z,5.40
2022-12-08T16:28:29.281Z,5.40
2022-12-08T16:30:38.186Z,5.40
2022-12-08T16:33:05.134Z,5.40
2022-12-08T16:35:31.788Z,5.40
2022-12-08T16:37:58.738Z,5.30
2022-12-08T16:40:25.712Z,5.20
2022-12-08T16:42:52.757Z,5.10
2022-12-08T16:45:24.741Z,5.10
2022-12-08T16:47:58.764Z,5.10
2022-12-08T16:50:26.987Z,5.10
2022-12-08T16:53:12.918Z,5.00
2022-12-08T16:55:39.971Z,5.00
2022-12-08T16:58:07.040Z,4.90
2022-12-08T17:00:36.841Z,4.90
2022-12-08T17:03:05.177Z,4.90
2022-12-08T17:05:32.196Z,4.90
2022-12-08T17:07:59.165Z,5.00
2022-12-08T17:10:29.422Z,4.90
2022-12-08T17:12:56.868Z,5.00
2022-12-08T17:15:25.502Z,4.90
2022-12-08T17:17:52.934Z,4.90
2022-12-08T17:20:23.935Z,4.90
2022-12-08T17:22:53.190Z,4.80
2022-12-08T17:25:19.870Z,4.70
2022-12-08T17:27:46.449Z,4.70
2022-12-08T17:30:15.642Z,4.70
2022-12-08T17:32:43.034Z,4.70
2022-12-08T17:35:10.631Z,4.60
2022-12-08T17:37:37.265Z,4.60
2022-12-08T17:40:05.142Z,4.60
2022-12-08T17:42:32.007Z,4.60
2022-12-08T17:44:58.621Z,4.50
2022-12-08T17:47:25.219Z,4.50
2022-12-08T17:49:52.007Z,4.40
2022-12-08T17:52:18.642Z,4.40
2022-12-08T17:54:45.320Z,4.40
2022-12-08T17:57:12.080Z,4.40
2022-12-08T17:59:38.751Z,4.40
2022-12-08T18:02:05.642Z,4.30
2022-12-08T18:04:32.331Z,4.20
2022-12-08T18:07:01.138Z,4.20
2022-12-08T18:09:30.717Z,4.20
2022-12-08T18:11:57.387Z,4.20
2022-12-08T18:14:24.036Z,4.20
2022-12-08T18:16:50.669Z,4.20
2022-12-08T18:19:17.298Z,4.20
2022-12-08T18:21:44.017Z,4.20
2022-12-08T18:24:21.932Z,4.10
2022-12-08T18:26:48.878Z,4.10
2022-12-08T18:29:15.454Z,4.10
2022-12-08T18:31:42.022Z,4.10
2022-12-08T18:34:08.625Z,4.00
2022-12-08T18:36:35.396Z,4.00
2022-12-08T18:39:05.832Z,3.90
2022-12-08T18:41:35.618Z,3.90
2022-12-08T18:44:02.246Z,3.80
2022-12-08T18:46:28.891Z,3.80
2022-12-08T18:48:55.719Z,3.80
2022-12-08T18:51:23.995Z,3.80
2022-12-08T18:53:51.614Z,3.80
2022-12-08T18:56:29.913Z,3.70
2022-12-08T18:59:02.839Z,3.70
2022-12-08T19:01:31.867Z,3.70
2022-12-08T19:06:50.603Z,3.50
2022-12-08T19:09:17.903Z,3.50
2022-12-08T19:11:44.601Z,3.40
2022-12-08T19:14:11.681Z,3.40
2022-12-08T19:16:38.433Z,3.40
2022-12-08T19:19:05.482Z,3.40
2022-12-08T19:21:32.848Z,3.40
2022-12-08T19:23:59.873Z,3.40
2022-12-08T19:26:28.140Z,3.40
2022-12-08T19:28:55.159Z,3.40
2022-12-08T19:31:22.080Z,3.40
2022-12-08T19:33:48.795Z,3.40
2022-12-08T19:36:18.381Z,3.40
2022-12-08T19:39:17.645Z,3.40
2022-12-08T19:42:03.088Z,3.50
2022-12-08T19:44:48.850Z,3.50
2022-12-08T19:47:15.548Z,3.50
2022-12-08T19:49:42.281Z,3.50
2022-12-08T19:52:09.020Z,3.50
2022-12-08T19:54:36.163Z,3.50
2022-12-08T19:57:02.841Z,3.50
2022-12-08T19:59:30.312Z,3.60
2022-12-08T20:02:00.344Z,3.60
2022-12-08T20:04:27.768Z,3.60
2022-12-08T20:06:55.837Z,3.60
2022-12-08T20:09:23.637Z,3.70
2022-12-08T20:11:50.873Z,3.60
2022-12-08T20:14:21.737Z,3.70
2022-12-08T20:16:48.706Z,3.60
2022-12-08T20:19:15.528Z,3.60
2022-12-08T20:21:42.372Z,3.60
2022-12-08T20:24:09.026Z,3.60
2022-12-08T20:26:35.782Z,3.60
2022-12-08T20:29:02.384Z,3.60
2022-12-08T20:31:31.365Z,3.60
2022-12-08T20:33:58.099Z,3.70
2022-12-08T20:36:25.366Z,3.60
2022-12-08T20:38:53.769Z,3.70
2022-12-08T20:41:23.128Z,3.60
2022-12-08T20:43:50.450Z,3.50
2022-12-08T20:46:18.129Z,3.60
2022-12-08T20:48:45.223Z,3.60
2022-12-08T20:51:16.919Z,3.70
2022-12-08T20:53:44.672Z,3.70
2022-12-08T20:56:20.282Z,3.80
2022-12-08T20:58:47.631Z,3.80
2022-12-08T21:01:17.099Z,3.80
2022-12-08T21:03:44.458Z,3.80
2022-12-08T21:06:11.853Z,3.80
2022-12-08T21:08:39.444Z,3.80
2022-12-08T21:11:07.691Z,3.80
2022-12-08T21:13:36.979Z,3.80
2022-12-08T21:16:04.836Z,3.90
2022-12-08T21:18:38.988Z,3.90
2022-12-08T21:21:12.198Z,3.90
2022-12-08T21:23:39.624Z,3.90
2022-12-08T21:26:21.101Z,3.90
2022-12-08T21:28:47.980Z,3.90
2022-12-08T21:31:17.371Z,3.90
2022-12-08T21:33:44.192Z,4.00
2022-12-08T21:36:13.395Z,4.10
2022-12-08T21:38:40.887Z,4.00
2022-12-08T21:41:16.313Z,4.00
2022-12-08T21:43:43.394Z,4.00
2022-12-08T21:46:17.162Z,4.00
2022-12-08T21:48:43.967Z,4.10
2022-12-08T21:51:10.679Z,4.00
2022-12-08T21:53:37.389Z,4.10
2022-12-08T21:56:09.181Z,4.10
2022-12-08T21:58:35.994Z,4.20
2022-12-08T22:01:10.525Z,4.20
2022-12-08T22:03:39.125Z,4.20
2022-12-08T22:06:11.519Z,4.30
2022-12-08T22:08:38.823Z,4.30
2022-12-08T22:11:06.227Z,4.20
2022-12-08T22:13:37.697Z,4.00
2022-12-08T22:16:07.151Z,4.00
2022-12-08T22:18:34.470Z,4.00
2022-12-08T22:21:01.592Z,4.10
2022-12-08T22:23:28.822Z,4.10
2022-12-08T22:25:57.690Z,4.20
2022-12-08T22:28:25.020Z,4.20
2022-12-08T22:30:51.676Z,4.10
2022-12-08T22:33:18.337Z,4.10
2022-12-08T22:35:54.044Z,4.00
2022-12-08T22:38:20.793Z,3.90
2022-12-08T22:40:47.603Z,3.90
2022-12-08T22:43:14.196Z,3.90
2022-12-08T22:45:40.946Z,3.90
2022-12-08T22:48:07.823Z,3.90
2022-12-08T22:50:34.391Z,3.90
2022-12-08T22:53:00.993Z,4.00
2022-12-08T22:55:27.595Z,4.10
2022-12-08T22:57:54.270Z,4.00
2022-12-08T23:00:20.955Z,4.00
2022-12-08T23:02:47.652Z,4.00
2022-12-08T23:05:14.515Z,4.00
2022-12-08T23:07:41.833Z,4.00
2022-12-08T23:10:10.709Z,4.00
2022-12-08T23:12:37.815Z,4.00
2022-12-08T23:15:05.054Z,4.00
2022-12-08T23:17:31.777Z,4.10
2022-12-08T23:19:58.482Z,4.10
2022-12-08T23:22:25.368Z,4.10
2022-12-08T23:24:51.946Z,4.00
2022-12-08T23:27:18.675Z,4.00
2022-12-08T23:29:45.332Z,4.00
2022-12-08T23:32:12.045Z,3.90
2022-12-08T23:34:39.658Z,3.80
2022-12-08T23:37:06.404Z,3.70
2022-12-08T23:39:33.101Z,3.70
2022-12-08T23:42:00.093Z,3.70
2022-12-08T23:44:26.948Z,3.70
2022-12-08T23:46:53.714Z,3.70
2022-12-08T23:49:21.290Z,3.70
2022-12-08T23:51:47.903Z,3.70
2022-12-08T23:54:14.503Z,3.80
2022-12-08T23:56:41.463Z,3.80
2022-12-08T23:59:08.263Z,3.80
